sensor_id;sensor_type;location;lat;lon;timestamp;P1;durP1;ratioP1;P2;durP2;ratioP2
50281;SDS011;36176;51.506;10.272;2023-06-26T00:00:10;8.97;;;8.37;;
50281;SDS011;36176;51.506;10.272;2023-06-26T00:02:38;12.57;;;11.70;;
50281;SDS011;36176;51.506;10.272;2023-06-26T00:05:05;12.40;;;11.53;;
50281;SDS011;36176;51.506;10.272;2023-06-26T00:07:33;8.77;;;8.17;;
50281;SDS011;36176;51.506;10.272;2023-06-26T00:10:01;10.53;;;9.80;;
50281;SDS011;36176;51.506;10.272;2023-06-26T00:12:30;8.20;;;7.60;;
50281;SDS011;36176;51.506;10.272;2023-06-26T00:15:02;9.63;;;8.97;;
50281;SDS011;36176;51.506;10.272;2023-06-26T00:17:30;11.80;;;10.90;;
50281;SDS011;36176;51.506;10.272;2023-06-26T00:19:57;10.37;;;9.67;;
50281;SDS011;36176;51.506;10.272;2023-06-26T00:22:24;13.00;;;12.10;;
50281;SDS011;36176;51.506;10.272;2023-06-26T00:24:51;13.53;;;12.53;;
50281;SDS011;36176;51.506;10.272;2023-06-26T00:27:19;10.97;;;10.17;;
50281;SDS011;36176;51.506;10.272;2023-06-26T00:29:46;11.53;;;10.63;;
50281;SDS011;36176;51.506;10.272;2023-06-26T00:32:13;9.17;;;8.33;;
50281;SDS011;36176;51.506;10.272;2023-06-26T00:34:40;10.13;;;9.33;;
50281;SDS011;36176;51.506;10.272;2023-06-26T00:37:07;18.93;;;17.57;;
50281;SDS011;36176;51.506;10.272;2023-06-26T00:39:34;16.73;;;15.67;;
50281;SDS011;36176;51.506;10.272;2023-06-26T00:42:01;16.37;;;15.27;;
50281;SDS011;36176;51.506;10.272;2023-06-26T00:44:28;11.00;;;10.30;;
50281;SDS011;36176;51.506;10.272;2023-06-26T00:46:55;13.13;;;11.90;;
50281;SDS011;36176;51.506;10.272;2023-06-26T00:49:24;11.33;;;10.43;;
50281;SDS011;36176;51.506;10.272;2023-06-26T00:51:52;13.77;;;12.80;;
50281;SDS011;36176;51.506;10.272;2023-06-26T00:54:20;9.93;;;9.03;;
50281;SDS011;36176;51.506;10.272;2023-06-26T00:56:48;14.13;;;12.93;;
50281;SDS011;36176;51.506;10.272;2023-06-26T00:59:16;20.33;;;18.90;;
50281;SDS011;36176;51.506;10.272;2023-06-26T01:01:43;14.60;;;13.40;;
50281;SDS011;36176;51.506;10.272;2023-06-26T01:04:10;21.63;;;20.03;;
50281;SDS011;36176;51.506;10.272;2023-06-26T01:06:48;13.30;;;12.10;;
50281;SDS011;36176;51.506;10.272;2023-06-26T01:09:20;17.53;;;16.30;;
50281;SDS011;36176;51.506;10.272;2023-06-26T01:11:49;13.77;;;12.70;;
50281;SDS011;36176;51.506;10.272;2023-06-26T01:14:16;17.27;;;16.07;;
50281;SDS011;36176;51.506;10.272;2023-06-26T01:16:44;10.03;;;9.30;;
50281;SDS011;36176;51.506;10.272;2023-06-26T01:19:20;10.57;;;9.67;;
50281;SDS011;36176;51.506;10.272;2023-06-26T01:22:39;19.23;;;17.83;;
50281;SDS011;36176;51.506;10.272;2023-06-26T01:25:01;19.53;;;18.23;;
50281;SDS011;36176;51.506;10.272;2023-06-26T01:27:37;9.20;;;8.30;;
50281;SDS011;36176;51.506;10.272;2023-06-26T01:30:05;10.00;;;9.07;;
50281;SDS011;36176;51.506;10.272;2023-06-26T01:32:34;11.60;;;10.60;;
50281;SDS011;36176;51.506;10.272;2023-06-26T01:35:02;14.97;;;13.70;;
50281;SDS011;36176;51.506;10.272;2023-06-26T01:37:30;23.47;;;21.90;;
50281;SDS011;36176;51.506;10.272;2023-06-26T01:39:57;12.57;;;11.57;;
50281;SDS011;36176;51.506;10.272;2023-06-26T01:42:24;19.97;;;18.73;;
50281;SDS011;36176;51.506;10.272;2023-06-26T01:44:51;12.83;;;11.93;;
50281;SDS011;36176;51.506;10.272;2023-06-26T01:47:22;14.97;;;13.50;;
50281;SDS011;36176;51.506;10.272;2023-06-26T01:49:56;17.33;;;15.77;;
50281;SDS011;36176;51.506;10.272;2023-06-26T01:52:38;10.80;;;10.00;;
50281;SDS011;36176;51.506;10.272;2023-06-26T01:55:15;12.63;;;11.43;;
50281;SDS011;36176;51.506;10.272;2023-06-26T01:57:48;12.17;;;11.07;;
50281;SDS011;36176;51.506;10.272;2023-06-26T02:00:21;9.43;;;8.63;;
50281;SDS011;36176;51.506;10.272;2023-06-26T02:02:48;12.23;;;11.13;;
50281;SDS011;36176;51.506;10.272;2023-06-26T02:05:15;10.33;;;9.60;;
50281;SDS011;36176;51.506;10.272;2023-06-26T02:07:42;25.00;;;23.50;;
50281;SDS011;36176;51.506;10.272;2023-06-26T02:10:10;13.30;;;12.40;;
50281;SDS011;36176;51.506;10.272;2023-06-26T02:12:38;10.40;;;9.50;;
50281;SDS011;36176;51.506;10.272;2023-06-26T02:15:06;8.80;;;8.17;;
50281;SDS011;36176;51.506;10.272;2023-06-26T02:17:33;12.20;;;11.17;;
50281;SDS011;36176;51.506;10.272;2023-06-26T02:20:01;15.80;;;14.63;;
50281;SDS011;36176;51.506;10.272;2023-06-26T02:22:28;16.50;;;15.33;;
50281;SDS011;36176;51.506;10.272;2023-06-26T02:24:55;13.10;;;12.10;;
50281;SDS011;36176;51.506;10.272;2023-06-26T02:27:22;9.77;;;8.80;;
50281;SDS011;36176;51.506;10.272;2023-06-26T02:29:49;16.53;;;15.37;;
50281;SDS011;36176;51.506;10.272;2023-06-26T02:32:17;14.73;;;13.67;;
50281;SDS011;36176;51.506;10.272;2023-06-26T02:34:44;12.13;;;10.90;;
50281;SDS011;36176;51.506;10.272;2023-06-26T02:37:11;15.33;;;14.23;;
50281;SDS011;36176;51.506;10.272;2023-06-26T02:39:38;12.87;;;11.97;;
50281;SDS011;36176;51.506;10.272;2023-06-26T02:42:06;12.77;;;11.67;;
50281;SDS011;36176;51.506;10.272;2023-06-26T02:44:33;13.50;;;12.40;;
50281;SDS011;36176;51.506;10.272;2023-06-26T02:47:00;14.20;;;13.00;;
50281;SDS011;36176;51.506;10.272;2023-06-26T02:49:27;12.63;;;11.33;;
50281;SDS011;36176;51.506;10.272;2023-06-26T02:51:54;16.37;;;14.73;;
50281;SDS011;36176;51.506;10.272;2023-06-26T02:54:22;11.23;;;10.10;;
50281;SDS011;36176;51.506;10.272;2023-06-26T02:56:49;18.43;;;16.97;;
50281;SDS011;36176;51.506;10.272;2023-06-26T02:59:16;10.20;;;9.23;;
50281;SDS011;36176;51.506;10.272;2023-06-26T03:01:43;13.37;;;10.47;;
50281;SDS011;36176;51.506;10.272;2023-06-26T03:04:10;15.10;;;13.83;;
50281;SDS011;36176;51.506;10.272;2023-06-26T03:06:37;12.57;;;11.37;;
50281;SDS011;36176;51.506;10.272;2023-06-26T03:09:04;15.57;;;14.23;;
50281;SDS011;36176;51.506;10.272;2023-06-26T03:11:31;10.33;;;8.60;;
50281;SDS011;36176;51.506;10.272;2023-06-26T03:13:59;10.90;;;9.90;;
50281;SDS011;36176;51.506;10.272;2023-06-26T03:16:26;16.07;;;14.67;;
50281;SDS011;36176;51.506;10.272;2023-06-26T03:18:53;10.30;;;9.40;;
50281;SDS011;36176;51.506;10.272;2023-06-26T03:21:20;10.87;;;9.77;;
50281;SDS011;36176;51.506;10.272;2023-06-26T03:23:47;13.30;;;12.27;;
50281;SDS011;36176;51.506;10.272;2023-06-26T03:26:14;13.67;;;12.60;;
50281;SDS011;36176;51.506;10.272;2023-06-26T03:28:41;12.77;;;11.60;;
50281;SDS011;36176;51.506;10.272;2023-06-26T03:31:09;11.40;;;10.40;;
50281;SDS011;36176;51.506;10.272;2023-06-26T03:33:37;11.00;;;9.90;;
50281;SDS011;36176;51.506;10.272;2023-06-26T03:36:05;11.77;;;9.70;;
50281;SDS011;36176;51.506;10.272;2023-06-26T03:38:32;9.53;;;8.77;;
50281;SDS011;36176;51.506;10.272;2023-06-26T03:41:00;10.33;;;9.33;;
50281;SDS011;36176;51.506;10.272;2023-06-26T03:43:27;10.33;;;9.40;;
50281;SDS011;36176;51.506;10.272;2023-06-26T03:45:54;9.67;;;8.87;;
50281;SDS011;36176;51.506;10.272;2023-06-26T03:48:21;19.33;;;17.93;;
50281;SDS011;36176;51.506;10.272;2023-06-26T03:50:49;14.17;;;13.00;;
50281;SDS011;36176;51.506;10.272;2023-06-26T03:53:16;9.37;;;8.47;;
50281;SDS011;36176;51.506;10.272;2023-06-26T03:55:43;11.57;;;10.67;;
50281;SDS011;36176;51.506;10.272;2023-06-26T03:58:10;12.27;;;11.33;;
50281;SDS011;36176;51.506;10.272;2023-06-26T04:00:38;13.40;;;12.20;;
50281;SDS011;36176;51.506;10.272;2023-06-26T04:03:05;12.30;;;10.77;;
50281;SDS011;36176;51.506;10.272;2023-06-26T04:05:32;9.37;;;8.57;;
50281;SDS011;36176;51.506;10.272;2023-06-26T04:07:59;14.97;;;13.80;;
50281;SDS011;36176;51.506;10.272;2023-06-26T04:10:26;16.77;;;15.57;;
50281;SDS011;36176;51.506;10.272;2023-06-26T04:12:53;12.30;;;11.23;;
50281;SDS011;36176;51.506;10.272;2023-06-26T04:15:20;12.57;;;11.27;;
50281;SDS011;36176;51.506;10.272;2023-06-26T04:17:47;11.63;;;10.27;;
50281;SDS011;36176;51.506;10.272;2023-06-26T04:20:15;10.77;;;9.73;;
50281;SDS011;36176;51.506;10.272;2023-06-26T04:22:42;10.63;;;9.83;;
50281;SDS011;36176;51.506;10.272;2023-06-26T04:25:09;18.83;;;17.37;;
50281;SDS011;36176;51.506;10.272;2023-06-26T04:27:38;12.80;;;11.90;;
50281;SDS011;36176;51.506;10.272;2023-06-26T04:30:07;22.20;;;20.80;;
50281;SDS011;36176;51.506;10.272;2023-06-26T04:32:36;13.13;;;12.17;;
50281;SDS011;36176;51.506;10.272;2023-06-26T04:35:03;10.17;;;9.13;;
50281;SDS011;36176;51.506;10.272;2023-06-26T04:37:30;12.83;;;11.70;;
50281;SDS011;36176;51.506;10.272;2023-06-26T04:39:57;10.40;;;9.67;;
50281;SDS011;36176;51.506;10.272;2023-06-26T04:42:24;16.87;;;15.73;;
50281;SDS011;36176;51.506;10.272;2023-06-26T04:44:52;13.90;;;12.93;;
50281;SDS011;36176;51.506;10.272;2023-06-26T04:47:19;14.97;;;13.67;;
50281;SDS011;36176;51.506;10.272;2023-06-26T04:49:47;13.17;;;11.90;;
50281;SDS011;36176;51.506;10.272;2023-06-26T04:52:14;12.65;;;11.65;;
50281;SDS011;36176;51.506;10.272;2023-06-26T04:54:41;9.27;;;6.18;;
50281;SDS011;36176;51.506;10.272;2023-06-26T04:57:08;6.63;;;5.55;;
50281;SDS011;36176;51.506;10.272;2023-06-26T04:59:36;16.05;;;15.00;;
50281;SDS011;36176;51.506;10.272;2023-06-26T05:02:03;11.95;;;11.07;;
50281;SDS011;36176;51.506;10.272;2023-06-26T05:04:31;5.13;;;4.63;;
50281;SDS011;36176;51.506;10.272;2023-06-26T05:07:00;6.55;;;5.65;;
50281;SDS011;36176;51.506;10.272;2023-06-26T05:09:27;6.22;;;5.63;;
50281;SDS011;36176;51.506;10.272;2023-06-26T05:11:55;5.85;;;5.30;;
50281;SDS011;36176;51.506;10.272;2023-06-26T05:14:22;7.13;;;6.50;;
50281;SDS011;36176;51.506;10.272;2023-06-26T05:16:51;6.93;;;6.22;;
50281;SDS011;36176;51.506;10.272;2023-06-26T05:19:19;5.43;;;5.03;;
50281;SDS011;36176;51.506;10.272;2023-06-26T05:21:46;6.20;;;4.70;;
50281;SDS011;36176;51.506;10.272;2023-06-26T05:24:15;7.85;;;5.25;;
50281;SDS011;36176;51.506;10.272;2023-06-26T05:26:43;11.35;;;10.48;;
50281;SDS011;36176;51.506;10.272;2023-06-26T05:29:10;31.67;;;29.10;;
50281;SDS011;36176;51.506;10.272;2023-06-26T05:31:40;6.22;;;4.20;;
50281;SDS011;36176;51.506;10.272;2023-06-26T05:34:08;12.55;;;11.65;;
50281;SDS011;36176;51.506;10.272;2023-06-26T05:36:37;10.15;;;7.60;;
50281;SDS011;36176;51.506;10.272;2023-06-26T05:39:06;13.00;;;11.98;;
50281;SDS011;36176;51.506;10.272;2023-06-26T05:41:33;21.30;;;19.73;;
50281;SDS011;36176;51.506;10.272;2023-06-26T05:44:00;5.28;;;4.72;;
50281;SDS011;36176;51.506;10.272;2023-06-26T05:46:28;4.82;;;4.43;;
50281;SDS011;36176;51.506;10.272;2023-06-26T05:48:56;7.47;;;5.00;;
50281;SDS011;36176;51.506;10.272;2023-06-26T05:51:23;5.18;;;4.13;;
50281;SDS011;36176;51.506;10.272;2023-06-26T05:53:50;6.10;;;5.53;;
50281;SDS011;36176;51.506;10.272;2023-06-26T05:56:18;7.75;;;7.10;;
50281;SDS011;36176;51.506;10.272;2023-06-26T05:58:45;4.82;;;4.35;;
50281;SDS011;36176;51.506;10.272;2023-06-26T06:01:13;5.05;;;4.65;;
50281;SDS011;36176;51.506;10.272;2023-06-26T06:03:40;5.78;;;4.45;;
50281;SDS011;36176;51.506;10.272;2023-06-26T06:06:07;3.92;;;3.63;;
50281;SDS011;36176;51.506;10.272;2023-06-26T06:08:35;4.75;;;3.72;;
50281;SDS011;36176;51.506;10.272;2023-06-26T06:11:02;4.05;;;3.53;;
50281;SDS011;36176;51.506;10.272;2023-06-26T06:13:30;5.15;;;4.72;;
50281;SDS011;36176;51.506;10.272;2023-06-26T06:15:57;4.45;;;3.97;;
50281;SDS011;36176;51.506;10.272;2023-06-26T06:18:24;5.47;;;3.88;;
50281;SDS011;36176;51.506;10.272;2023-06-26T06:20:51;4.30;;;3.90;;
50281;SDS011;36176;51.506;10.272;2023-06-26T06:23:19;4.60;;;4.18;;
50281;SDS011;36176;51.506;10.272;2023-06-26T06:25:46;8.90;;;8.20;;
50281;SDS011;36176;51.506;10.272;2023-06-26T06:28:13;7.85;;;7.25;;
50281;SDS011;36176;51.506;10.272;2023-06-26T06:30:43;5.22;;;4.68;;
50281;SDS011;36176;51.506;10.272;2023-06-26T06:33:12;14.88;;;13.98;;
50281;SDS011;36176;51.506;10.272;2023-06-26T06:35:40;7.28;;;4.30;;
50281;SDS011;36176;51.506;10.272;2023-06-26T06:38:07;4.18;;;3.88;;
50281;SDS011;36176;51.506;10.272;2023-06-26T06:40:34;4.60;;;3.90;;
50281;SDS011;36176;51.506;10.272;2023-06-26T06:43:02;4.75;;;4.35;;
50281;SDS011;36176;51.506;10.272;2023-06-26T06:45:29;5.03;;;4.63;;
50281;SDS011;36176;51.506;10.272;2023-06-26T06:47:56;5.18;;;4.63;;
50281;SDS011;36176;51.506;10.272;2023-06-26T06:50:23;6.20;;;5.70;;
50281;SDS011;36176;51.506;10.272;2023-06-26T06:52:50;6.57;;;6.00;;
50281;SDS011;36176;51.506;10.272;2023-06-26T06:55:18;5.07;;;4.68;;
50281;SDS011;36176;51.506;10.272;2023-06-26T06:57:45;4.28;;;3.88;;
50281;SDS011;36176;51.506;10.272;2023-06-26T07:00:13;5.25;;;4.85;;
50281;SDS011;36176;51.506;10.272;2023-06-26T07:02:43;6.70;;;4.10;;
50281;SDS011;36176;51.506;10.272;2023-06-26T07:05:12;5.95;;;5.55;;
50281;SDS011;36176;51.506;10.272;2023-06-26T07:07:39;4.80;;;4.28;;
50281;SDS011;36176;51.506;10.272;2023-06-26T07:10:07;6.15;;;5.55;;
50281;SDS011;36176;51.506;10.272;2023-06-26T07:12:36;3.70;;;3.40;;
50281;SDS011;36176;51.506;10.272;2023-06-26T07:15:04;6.90;;;6.38;;
50281;SDS011;36176;51.506;10.272;2023-06-26T07:17:32;4.00;;;3.70;;
50281;SDS011;36176;51.506;10.272;2023-06-26T07:20:01;8.77;;;8.10;;
50281;SDS011;36176;51.506;10.272;2023-06-26T07:22:32;20.63;;;19.08;;
50281;SDS011;36176;51.506;10.272;2023-06-26T07:24:59;5.97;;;5.65;;
50281;SDS011;36176;51.506;10.272;2023-06-26T07:27:26;6.35;;;5.85;;
50281;SDS011;36176;51.506;10.272;2023-06-26T07:29:53;4.05;;;3.65;;
50281;SDS011;36176;51.506;10.272;2023-06-26T07:32:20;6.50;;;5.90;;
50281;SDS011;36176;51.506;10.272;2023-06-26T07:34:48;15.43;;;14.30;;
50281;SDS011;36176;51.506;10.272;2023-06-26T07:37:15;5.07;;;3.92;;
50281;SDS011;36176;51.506;10.272;2023-06-26T07:39:42;6.50;;;6.10;;
50281;SDS011;36176;51.506;10.272;2023-06-26T07:42:09;4.53;;;4.10;;
50281;SDS011;36176;51.506;10.272;2023-06-26T07:44:37;7.45;;;6.95;;
50281;SDS011;36176;51.506;10.272;2023-06-26T07:47:04;7.25;;;6.72;;
50281;SDS011;36176;51.506;10.272;2023-06-26T07:49:31;9.95;;;9.32;;
50281;SDS011;36176;51.506;10.272;2023-06-26T07:51:58;4.30;;;3.90;;
50281;SDS011;36176;51.506;10.272;2023-06-26T07:54:25;7.80;;;7.22;;
50281;SDS011;36176;51.506;10.272;2023-06-26T07:56:56;11.85;;;10.80;;
50281;SDS011;36176;51.506;10.272;2023-06-26T07:59:25;4.30;;;3.90;;
50281;SDS011;36176;51.506;10.272;2023-06-26T08:01:54;3.78;;;3.58;;
50281;SDS011;36176;51.506;10.272;2023-06-26T08:04:22;5.60;;;5.10;;
50281;SDS011;36176;51.506;10.272;2023-06-26T08:06:52;8.35;;;7.68;;
50281;SDS011;36176;51.506;10.272;2023-06-26T08:09:20;4.20;;;3.90;;
50281;SDS011;36176;51.506;10.272;2023-06-26T08:11:49;4.22;;;3.92;;
50281;SDS011;36176;51.506;10.272;2023-06-26T08:14:17;8.75;;;8.10;;
50281;SDS011;36176;51.506;10.272;2023-06-26T08:16:44;3.80;;;3.50;;
50281;SDS011;36176;51.506;10.272;2023-06-26T08:19:13;15.68;;;14.48;;
50281;SDS011;36176;51.506;10.272;2023-06-26T08:21:41;12.52;;;11.63;;
50281;SDS011;36176;51.506;10.272;2023-06-26T08:24:08;11.52;;;10.68;;
50281;SDS011;36176;51.506;10.272;2023-06-26T08:26:36;29.35;;;26.73;;
50281;SDS011;36176;51.506;10.272;2023-06-26T08:29:04;7.45;;;6.95;;
50281;SDS011;36176;51.506;10.272;2023-06-26T08:31:38;5.32;;;4.70;;
50281;SDS011;36176;51.506;10.272;2023-06-26T08:34:06;4.50;;;3.47;;
50281;SDS011;36176;51.506;10.272;2023-06-26T08:36:34;6.43;;;5.93;;
50281;SDS011;36176;51.506;10.272;2023-06-26T08:39:02;6.57;;;6.03;;
50281;SDS011;36176;51.506;10.272;2023-06-26T08:41:30;12.82;;;11.88;;
50281;SDS011;36176;51.506;10.272;2023-06-26T08:43:57;8.10;;;7.60;;
50281;SDS011;36176;51.506;10.272;2023-06-26T08:46:25;6.43;;;4.72;;
50281;SDS011;36176;51.506;10.272;2023-06-26T08:48:55;3.63;;;3.35;;
50281;SDS011;36176;51.506;10.272;2023-06-26T08:51:29;3.75;;;3.45;;
50281;SDS011;36176;51.506;10.272;2023-06-26T08:53:59;13.60;;;12.60;;
50281;SDS011;36176;51.506;10.272;2023-06-26T08:56:29;10.40;;;9.77;;
50281;SDS011;36176;51.506;10.272;2023-06-26T08:58:59;6.22;;;5.78;;
50281;SDS011;36176;51.506;10.272;2023-06-26T09:01:27;7.78;;;7.05;;
50281;SDS011;36176;51.506;10.272;2023-06-26T09:03:54;12.43;;;11.63;;
50281;SDS011;36176;51.506;10.272;2023-06-26T09:06:22;6.47;;;5.90;;
50281;SDS011;36176;51.506;10.272;2023-06-26T09:08:49;11.88;;;10.90;;
50281;SDS011;36176;51.506;10.272;2023-06-26T09:11:16;9.63;;;8.90;;
50281;SDS011;36176;51.506;10.272;2023-06-26T09:13:44;12.40;;;11.48;;
50281;SDS011;36176;51.506;10.272;2023-06-26T09:16:14;5.75;;;4.22;;
50281;SDS011;36176;51.506;10.272;2023-06-26T09:18:42;14.05;;;13.10;;
50281;SDS011;36176;51.506;10.272;2023-06-26T09:21:09;14.75;;;13.68;;
50281;SDS011;36176;51.506;10.272;2023-06-26T09:23:39;4.53;;;4.13;;
50281;SDS011;36176;51.506;10.272;2023-06-26T09:26:09;12.02;;;10.90;;
50281;SDS011;36176;51.506;10.272;2023-06-26T09:28:38;7.80;;;7.25;;
50281;SDS011;36176;51.506;10.272;2023-06-26T09:31:07;18.38;;;16.88;;
50281;SDS011;36176;51.506;10.272;2023-06-26T09:33:35;18.30;;;17.17;;
50281;SDS011;36176;51.506;10.272;2023-06-26T09:36:07;5.90;;;5.35;;
50281;SDS011;36176;51.506;10.272;2023-06-26T09:38:38;8.18;;;7.53;;
50281;SDS011;36176;51.506;10.272;2023-06-26T09:41:05;4.50;;;4.20;;
50281;SDS011;36176;51.506;10.272;2023-06-26T09:43:32;10.02;;;5.68;;
50281;SDS011;36176;51.506;10.272;2023-06-26T09:46:00;17.10;;;15.63;;
50281;SDS011;36176;51.506;10.272;2023-06-26T09:48:28;25.20;;;23.33;;
50281;SDS011;36176;51.506;10.272;2023-06-26T09:50:55;7.68;;;7.07;;
50281;SDS011;36176;51.506;10.272;2023-06-26T09:53:39;7.53;;;6.93;;
50281;SDS011;36176;51.506;10.272;2023-06-26T09:56:15;4.95;;;4.60;;
50281;SDS011;36176;51.506;10.272;2023-06-26T09:58:49;7.65;;;7.15;;
50281;SDS011;36176;51.506;10.272;2023-06-26T10:01:17;15.57;;;14.63;;
50281;SDS011;36176;51.506;10.272;2023-06-26T10:03:45;5.38;;;4.80;;
50281;SDS011;36176;51.506;10.272;2023-06-26T10:06:32;5.60;;;4.82;;
50281;SDS011;36176;51.506;10.272;2023-06-26T10:09:02;7.53;;;5.25;;
50281;SDS011;36176;51.506;10.272;2023-06-26T10:14:22;9.75;;;9.15;;
50281;SDS011;36176;51.506;10.272;2023-06-26T10:16:53;22.52;;;20.98;;
50281;SDS011;36176;51.506;10.272;2023-06-26T10:19:27;6.53;;;5.93;;
50281;SDS011;36176;51.506;10.272;2023-06-26T10:21:56;5.53;;;5.18;;
50281;SDS011;36176;51.506;10.272;2023-06-26T10:24:26;5.38;;;4.18;;
50281;SDS011;36176;51.506;10.272;2023-06-26T10:26:57;5.95;;;5.55;;
50281;SDS011;36176;51.506;10.272;2023-06-26T10:29:30;10.40;;;5.35;;
50281;SDS011;36176;51.506;10.272;2023-06-26T10:31:59;6.20;;;5.70;;
50281;SDS011;36176;51.506;10.272;2023-06-26T10:34:30;5.65;;;5.07;;
50281;SDS011;36176;51.506;10.272;2023-06-26T10:37:01;4.57;;;4.28;;
50281;SDS011;36176;51.506;10.272;2023-06-26T10:39:37;4.40;;;4.00;;
50281;SDS011;36176;51.506;10.272;2023-06-26T10:42:15;21.98;;;20.23;;
50281;SDS011;36176;51.506;10.272;2023-06-26T10:44:48;8.55;;;6.78;;
50281;SDS011;36176;51.506;10.272;2023-06-26T10:47:31;5.18;;;4.28;;
50281;SDS011;36176;51.506;10.272;2023-06-26T10:55:37;11.23;;;10.43;;
50281;SDS011;36176;51.506;10.272;2023-06-26T10:58:26;7.03;;;6.57;;
50281;SDS011;36176;51.506;10.272;2023-06-26T11:01:13;7.40;;;6.88;;
50281;SDS011;36176;51.506;10.272;2023-06-26T11:03:42;6.50;;;6.00;;
50281;SDS011;36176;51.506;10.272;2023-06-26T11:06:13;4.50;;;4.10;;
50281;SDS011;36176;51.506;10.272;2023-06-26T11:08:48;8.32;;;7.63;;
50281;SDS011;36176;51.506;10.272;2023-06-26T11:11:16;8.90;;;8.02;;
50281;SDS011;36176;51.506;10.272;2023-06-26T11:13:44;12.77;;;11.82;;
50281;SDS011;36176;51.506;10.272;2023-06-26T11:16:12;22.80;;;20.73;;
50281;SDS011;36176;51.506;10.272;2023-06-26T11:18:41;28.98;;;26.08;;
50281;SDS011;36176;51.506;10.272;2023-06-26T11:21:11;12.70;;;11.18;;
50281;SDS011;36176;51.506;10.272;2023-06-26T11:23:42;16.48;;;15.05;;
50281;SDS011;36176;51.506;10.272;2023-06-26T11:26:17;10.18;;;9.45;;
50281;SDS011;36176;51.506;10.272;2023-06-26T11:28:46;16.15;;;15.05;;
50281;SDS011;36176;51.506;10.272;2023-06-26T11:31:30;15.32;;;13.45;;
50281;SDS011;36176;51.506;10.272;2023-06-26T11:34:00;14.05;;;9.85;;
50281;SDS011;36176;51.506;10.272;2023-06-26T11:36:30;43.72;;;39.13;;
50281;SDS011;36176;51.506;10.272;2023-06-26T11:38:59;30.50;;;28.13;;
50281;SDS011;36176;51.506;10.272;2023-06-26T11:41:30;92.05;;;83.60;;
50281;SDS011;36176;51.506;10.272;2023-06-26T11:44:05;392.40;;;350.10;;
50281;SDS011;36176;51.506;10.272;2023-06-26T11:46:34;147.50;;;134.73;;
50281;SDS011;36176;51.506;10.272;2023-06-26T11:49:02;262.45;;;237.18;;
50281;SDS011;36176;51.506;10.272;2023-06-26T11:51:34;233.48;;;211.60;;
50281;SDS011;36176;51.506;10.272;2023-06-26T11:54:14;78.30;;;72.25;;
50281;SDS011;36176;51.506;10.272;2023-06-26T11:56:41;67.63;;;63.22;;
50281;SDS011;36176;51.506;10.272;2023-06-26T12:02:46;37.13;;;34.63;;
50281;SDS011;36176;51.506;10.272;2023-06-26T12:05:15;54.35;;;50.83;;
50281;SDS011;36176;51.506;10.272;2023-06-26T12:07:43;29.60;;;27.45;;
50281;SDS011;36176;51.506;10.272;2023-06-26T12:10:14;25.50;;;23.67;;
50281;SDS011;36176;51.506;10.272;2023-06-26T12:12:43;16.42;;;14.85;;
50281;SDS011;36176;51.506;10.272;2023-06-26T12:15:13;14.93;;;13.73;;
50281;SDS011;36176;51.506;10.272;2023-06-26T12:17:42;27.75;;;25.73;;
50281;SDS011;36176;51.506;10.272;2023-06-26T12:20:19;23.25;;;21.23;;
50281;SDS011;36176;51.506;10.272;2023-06-26T12:22:48;15.45;;;14.02;;
50281;SDS011;36176;51.506;10.272;2023-06-26T12:25:20;15.05;;;13.70;;
50281;SDS011;36176;51.506;10.272;2023-06-26T12:27:49;19.80;;;18.35;;
50281;SDS011;36176;51.506;10.272;2023-06-26T12:30:17;19.58;;;17.42;;
50281;SDS011;36176;51.506;10.272;2023-06-26T12:32:44;21.15;;;19.25;;
50281;SDS011;36176;51.506;10.272;2023-06-26T12:35:14;20.20;;;18.70;;
50281;SDS011;36176;51.506;10.272;2023-06-26T12:37:43;21.77;;;20.05;;
50281;SDS011;36176;51.506;10.272;2023-06-26T12:40:16;21.95;;;20.05;;
50281;SDS011;36176;51.506;10.272;2023-06-26T12:42:46;17.08;;;15.55;;
50281;SDS011;36176;51.506;10.272;2023-06-26T12:45:13;17.77;;;16.25;;
50281;SDS011;36176;51.506;10.272;2023-06-26T12:48:11;19.38;;;17.70;;
50281;SDS011;36176;51.506;10.272;2023-06-26T12:50:45;19.98;;;18.33;;
50281;SDS011;36176;51.506;10.272;2023-06-26T12:53:12;18.40;;;16.55;;
50281;SDS011;36176;51.506;10.272;2023-06-26T12:55:40;19.67;;;18.10;;
50281;SDS011;36176;51.506;10.272;2023-06-26T12:58:07;23.95;;;22.35;;
50281;SDS011;36176;51.506;10.272;2023-06-26T13:00:37;20.27;;;18.80;;
50281;SDS011;36176;51.506;10.272;2023-06-26T13:03:05;22.08;;;20.27;;
50281;SDS011;36176;51.506;10.272;2023-06-26T13:05:35;17.85;;;16.15;;
50281;SDS011;36176;51.506;10.272;2023-06-26T13:08:03;18.70;;;17.15;;
50281;SDS011;36176;51.506;10.272;2023-06-26T13:10:30;15.32;;;14.13;;
50281;SDS011;36176;51.506;10.272;2023-06-26T13:12:57;17.90;;;16.52;;
50281;SDS011;36176;51.506;10.272;2023-06-26T13:15:24;13.70;;;12.55;;
50281;SDS011;36176;51.506;10.272;2023-06-26T13:17:52;13.32;;;12.02;;
50281;SDS011;36176;51.506;10.272;2023-06-26T13:20:19;29.25;;;27.33;;
50281;SDS011;36176;51.506;10.272;2023-06-26T13:22:46;19.70;;;18.13;;
50281;SDS011;36176;51.506;10.272;2023-06-26T13:25:13;15.07;;;13.88;;
50281;SDS011;36176;51.506;10.272;2023-06-26T13:27:41;23.48;;;21.70;;
50281;SDS011;36176;51.506;10.272;2023-06-26T13:30:08;19.25;;;17.80;;
50281;SDS011;36176;51.506;10.272;2023-06-26T13:32:35;17.75;;;16.33;;
50281;SDS011;36176;51.506;10.272;2023-06-26T13:35:03;30.10;;;27.88;;
50281;SDS011;36176;51.506;10.272;2023-06-26T13:37:31;23.25;;;21.42;;
50281;SDS011;36176;51.506;10.272;2023-06-26T13:43:47;22.63;;;20.70;;
50281;SDS011;36176;51.506;10.272;2023-06-26T13:46:15;24.27;;;22.33;;
50281;SDS011;36176;51.506;10.272;2023-06-26T13:48:44;17.92;;;16.35;;
50281;SDS011;36176;51.506;10.272;2023-06-26T13:51:12;20.45;;;18.85;;
50281;SDS011;36176;51.506;10.272;2023-06-26T13:53:39;11.93;;;10.65;;
50281;SDS011;36176;51.506;10.272;2023-06-26T13:56:06;7.45;;;6.60;;
50281;SDS011;36176;51.506;10.272;2023-06-26T13:58:35;9.70;;;8.90;;
50281;SDS011;36176;51.506;10.272;2023-06-26T14:01:03;7.40;;;6.45;;
50281;SDS011;36176;51.506;10.272;2023-06-26T14:03:33;29.20;;;24.55;;
50281;SDS011;36176;51.506;10.272;2023-06-26T14:06:01;9.50;;;8.68;;
50281;SDS011;36176;51.506;10.272;2023-06-26T14:08:28;11.45;;;10.38;;
50281;SDS011;36176;51.506;10.272;2023-06-26T14:10:55;27.52;;;25.13;;
50281;SDS011;36176;51.506;10.272;2023-06-26T14:13:22;17.63;;;16.05;;
50281;SDS011;36176;51.506;10.272;2023-06-26T14:15:51;15.70;;;14.25;;
50281;SDS011;36176;51.506;10.272;2023-06-26T14:18:20;8.00;;;7.30;;
50281;SDS011;36176;51.506;10.272;2023-06-26T14:20:50;12.23;;;10.88;;
50281;SDS011;36176;51.506;10.272;2023-06-26T14:23:18;17.88;;;15.82;;
50281;SDS011;36176;51.506;10.272;2023-06-26T14:25:46;30.33;;;27.25;;
50281;SDS011;36176;51.506;10.272;2023-06-26T14:28:15;11.50;;;10.30;;
50281;SDS011;36176;51.506;10.272;2023-06-26T14:30:43;10.25;;;9.45;;
50281;SDS011;36176;51.506;10.272;2023-06-26T14:33:10;19.92;;;18.38;;
50281;SDS011;36176;51.506;10.272;2023-06-26T14:35:37;12.90;;;11.73;;
50281;SDS011;36176;51.506;10.272;2023-06-26T14:38:05;19.38;;;17.50;;
50281;SDS011;36176;51.506;10.272;2023-06-26T14:40:32;16.38;;;15.10;;
50281;SDS011;36176;51.506;10.272;2023-06-26T14:43:00;8.55;;;7.10;;